createdAt,value
2022-11-22T00:00:31.992Z,1.69
2022-11-22T00:05:35.105Z,1.77
2022-11-22T00:10:39.319Z,1.60
2022-11-22T00:15:42.024Z,1.73
2022-11-22T00:20:44.739Z,1.83
2022-11-22T00:25:48.980Z,1.83
2022-11-22T00:30:52.514Z,1.82
2022-11-22T00:35:55.286Z,1.81
2022-11-22T00:40:59.370Z,1.95
2022-11-22T00:46:02.491Z,2.01
2022-11-22T00:51:05.438Z,1.88
2022-11-22T00:56:10.688Z,2.01
2022-11-22T01:01:13.512Z,2.10
2022-11-22T01:06:16.403Z,2.22
2022-11-22T01:11:20.624Z,2.21
2022-11-22T01:16:23.352Z,2.21
2022-11-22T01:21:26.111Z,2.18
2022-11-22T01:26:30.221Z,2.17
2022-11-22T01:31:33.375Z,2.15
2022-11-22T01:36:36.217Z,2.17
2022-11-22T01:41:40.410Z,2.26
2022-11-22T01:46:43.449Z,2.16
2022-11-22T01:51:51.449Z,2.17
2022-11-22T01:56:58.996Z,2.20
2022-11-22T02:02:03.282Z,2.18
2022-11-22T02:07:12.180Z,2.30
2022-11-22T02:12:18.851Z,2.25
2022-11-22T02:17:21.622Z,2.38
2022-11-22T02:22:32.278Z,2.32
2022-11-22T02:27:36.436Z,2.16
2022-11-22T02:32:39.199Z,2.41
2022-11-22T02:37:41.974Z,2.45
2022-11-22T02:42:51.722Z,2.51
2022-11-22T02:47:54.526Z,2.34
2022-11-22T02:52:57.272Z,2.50
2022-11-22T02:58:01.515Z,2.64
2022-11-22T03:03:04.344Z,2.60
2022-11-22T03:08:07.274Z,2.48
2022-11-22T03:13:11.388Z,2.53
2022-11-22T03:18:14.219Z,2.52
2022-11-22T03:23:17.131Z,2.65
2022-11-22T03:28:21.203Z,2.70
2022-11-22T03:33:23.963Z,2.68
2022-11-22T03:38:26.779Z,2.73
2022-11-22T03:43:30.987Z,2.72
2022-11-22T03:48:34.699Z,2.76
2022-11-22T03:53:38.032Z,2.77
2022-11-22T03:58:42.151Z,2.77
2022-11-22T04:03:44.975Z,2.79
2022-11-22T04:08:47.900Z,2.81
2022-11-22T04:14:09.428Z,2.79
2022-11-22T04:19:12.283Z,2.87
2022-11-22T04:24:32.929Z,2.93
2022-11-22T04:29:37.079Z,2.84
2022-11-22T04:34:39.862Z,2.91
2022-11-22T04:39:42.654Z,3.00
2022-11-22T04:44:46.910Z,3.06
2022-11-22T04:49:49.664Z,3.11
2022-11-22T04:54:52.425Z,3.01
2022-11-22T04:59:56.554Z,2.94
2022-11-22T05:04:59.321Z,3.01
2022-11-22T05:10:02.082Z,2.96
2022-11-22T05:15:07.363Z,3.00
2022-11-22T05:20:11.556Z,3.17
2022-11-22T05:25:14.374Z,3.26
2022-11-22T05:30:19.572Z,3.33
2022-11-22T05:35:22.435Z,3.30
2022-11-22T05:40:25.593Z,3.39
2022-11-22T05:45:29.699Z,3.52
2022-11-22T05:50:32.423Z,3.57
2022-11-22T05:55:35.439Z,3.58
2022-11-22T06:00:39.559Z,3.60
2022-11-22T06:05:42.352Z,3.64
2022-11-22T06:10:45.112Z,3.62
2022-11-22T06:15:49.213Z,3.72
2022-11-22T06:20:51.973Z,3.65
2022-11-22T06:25:59.484Z,3.86
2022-11-22T06:31:04.189Z,3.92
2022-11-22T06:36:08.592Z,3.97
2022-11-22T06:41:13.137Z,3.99
2022-11-22T06:46:18.372Z,4.10
2022-11-22T06:51:23.514Z,4.18
2022-11-22T06:56:28.235Z,4.47
2022-11-22T07:01:34.757Z,4.62
2022-11-22T07:06:39.360Z,4.52
2022-11-22T07:11:42.148Z,4.63
2022-11-22T07:16:46.231Z,4.61
2022-11-22T07:21:49.589Z,4.59
2022-11-22T07:26:52.349Z,4.60
2022-11-22T07:31:56.519Z,4.55
2022-11-22T07:37:03.550Z,4.53
2022-11-22T07:42:08.973Z,4.52
2022-11-22T07:47:19.816Z,4.49
2022-11-22T07:52:25.501Z,4.53
2022-11-22T07:57:28.306Z,4.58
2022-11-22T08:02:32.620Z,4.71
2022-11-22T08:07:35.451Z,4.84
2022-11-22T08:12:38.316Z,4.88
2022-11-22T08:17:42.759Z,5.00
2022-11-22T08:22:45.572Z,5.69
2022-11-22T08:27:48.312Z,6.06
2022-11-22T08:32:55.422Z,6.60
2022-11-22T08:37:58.258Z,7.16
2022-11-22T08:43:01.077Z,7.03
2022-11-22T08:48:05.362Z,7.05
2022-11-22T08:53:08.160Z,7.36
2022-11-22T08:58:10.965Z,7.74
2022-11-22T09:03:15.223Z,7.79
2022-11-22T09:13:23.830Z,8.46
2022-11-22T09:18:28.029Z,8.35
2022-11-22T09:23:31.300Z,7.97
2022-11-22T09:28:35.041Z,7.91
2022-11-22T09:33:40.748Z,8.04
2022-11-22T09:38:43.898Z,8.07
2022-11-22T09:43:54.594Z,7.54
2022-11-22T09:49:19.447Z,7.83
2022-11-22T09:54:27.166Z,7.56
2022-11-22T09:59:34.104Z,7.66
2022-11-22T10:04:41.167Z,8.17
2022-11-22T10:09:52.190Z,7.88
2022-11-22T10:15:00.043Z,8.14
2022-11-22T10:20:08.234Z,7.91
2022-11-22T10:25:17.415Z,8.01
2022-11-22T10:30:22.251Z,8.66
2022-11-22T10:35:40.020Z,8.81
2022-11-22T10:40:50.859Z,9.85
2022-11-22T10:46:01.175Z,10.11
2022-11-22T10:51:15.563Z,10.20
2022-11-22T10:56:25.880Z,10.38
2022-11-22T11:01:37.026Z,10.57
2022-11-22T11:12:14.526Z,10.41
2022-11-22T11:17:22.169Z,11.61
2022-11-22T11:22:51.821Z,11.10
2022-11-22T11:27:52.271Z,10.84
2022-11-22T11:32:56.551Z,11.03
2022-11-22T11:38:00.712Z,10.93
2022-11-22T11:43:19.995Z,11.37
2022-11-22T11:48:41.107Z,11.11
2022-11-22T11:53:54.732Z,11.29
2022-11-22T11:59:00.258Z,11.03
2022-11-22T12:04:04.924Z,11.53
2022-11-22T12:09:29.628Z,10.22
2022-11-22T12:14:55.548Z,10.55
2022-11-22T12:20:04.009Z,10.54
2022-11-22T12:25:32.489Z,10.51
2022-11-22T12:30:47.389Z,10.32
2022-11-22T12:35:54.836Z,9.84
2022-11-22T12:41:02.743Z,10.49
2022-11-22T12:46:10.854Z,10.79
2022-11-22T12:51:18.841Z,10.13
2022-11-22T12:56:33.545Z,10.16
2022-11-22T13:01:44.297Z,10.15
2022-11-22T13:06:52.624Z,9.33
2022-11-22T13:12:01.534Z,8.57
2022-11-22T13:17:08.403Z,8.53
2022-11-22T13:22:22.640Z,8.71
2022-11-22T13:27:31.761Z,8.58
2022-11-22T13:32:36.090Z,8.38
2022-11-22T13:37:41.417Z,7.76
2022-11-22T13:42:45.542Z,8.13
2022-11-22T13:47:48.599Z,7.93
2022-11-22T13:52:53.683Z,8.07
2022-11-22T13:58:17.847Z,8.34
2022-11-22T14:03:38.374Z,8.30
2022-11-22T14:08:41.474Z,7.98
2022-11-22T14:13:54.140Z,7.89
2022-11-22T14:19:06.969Z,7.70
2022-11-22T14:24:18.383Z,7.57
2022-11-22T14:29:53.793Z,7.51
2022-11-22T14:35:29.502Z,7.34
2022-11-22T14:40:35.933Z,7.45
2022-11-22T14:45:44.308Z,7.57
2022-11-22T14:50:52.456Z,7.36
2022-11-22T14:56:03.642Z,7.42
2022-11-22T15:01:43.696Z,7.39
2022-11-22T15:09:17.860Z,7.54
2022-11-22T15:12:34.579Z,7.53
2022-11-22T16:01:19.372Z,7.09
2022-11-22T16:06:26.476Z,7.11
2022-11-22T16:11:31.699Z,7.08
2022-11-22T16:16:35.403Z,7.04
2022-11-22T16:21:39.478Z,6.95
2022-11-22T16:26:51.751Z,7.02
2022-11-22T16:32:01.023Z,7.03
2022-11-22T16:37:28.326Z,6.94
2022-11-22T16:42:33.188Z,6.83
2022-11-22T16:47:36.038Z,6.75
2022-11-22T16:52:40.670Z,6.60
2022-11-22T16:57:43.927Z,6.55
2022-11-22T17:02:46.758Z,6.46
2022-11-22T17:07:50.882Z,6.35
2022-11-22T17:12:54.241Z,6.16
2022-11-22T17:17:57.018Z,6.25
2022-11-22T17:23:01.325Z,6.07
2022-11-22T17:28:04.179Z,6.03
2022-11-22T17:33:06.995Z,6.13
2022-11-22T17:38:12.327Z,6.06
2022-11-22T17:43:15.098Z,6.14
2022-11-22T17:48:18.261Z,6.12
2022-11-22T17:53:22.331Z,6.08
2022-11-22T17:58:25.095Z,6.21
2022-11-22T18:03:27.885Z,6.26
2022-11-22T18:08:32.061Z,6.23
2022-11-22T18:13:36.564Z,6.14
2022-11-22T18:18:57.111Z,6.31
2022-11-22T18:24:02.675Z,6.13
2022-11-22T18:34:29.191Z,6.22
2022-11-22T18:39:35.759Z,6.17
2022-11-22T18:44:39.187Z,6.21
2022-11-22T18:49:41.982Z,6.18
2022-11-22T18:54:46.643Z,6.31
2022-11-22T18:59:49.363Z,6.35
2022-11-22T19:04:53.458Z,6.14
2022-11-22T19:09:58.671Z,6.16
2022-11-22T19:15:01.704Z,6.28
2022-11-22T19:20:05.613Z,6.35
2022-11-22T19:25:10.437Z,6.25
2022-11-22T19:30:14.625Z,6.33
2022-11-22T19:35:17.588Z,6.21
2022-11-22T19:40:21.681Z,6.26
2022-11-22T19:45:24.439Z,6.24
2022-11-22T19:50:27.121Z,6.31
2022-11-22T19:55:31.178Z,6.27
2022-11-22T20:00:34.252Z,6.19
2022-11-22T20:05:36.994Z,6.28
2022-11-22T20:10:41.027Z,6.18
2022-11-22T20:15:43.707Z,6.08
2022-11-22T20:20:46.279Z,6.07
2022-11-22T20:25:50.381Z,6.12
2022-11-22T20:30:53.863Z,6.07
2022-11-22T20:36:02.834Z,6.18
2022-11-22T20:41:07.557Z,6.21
2022-11-22T20:46:12.291Z,6.29
2022-11-22T20:51:17.287Z,6.30
2022-11-22T20:56:21.891Z,6.22
2022-11-22T21:01:26.890Z,6.16
2022-11-22T21:06:29.874Z,6.13
2022-11-22T21:11:34.844Z,6.29
2022-11-22T21:16:37.631Z,6.23
2022-11-22T21:21:40.431Z,6.10
2022-11-22T21:26:44.565Z,6.28
2022-11-22T21:31:47.368Z,6.00
2022-11-22T21:36:50.176Z,6.08
2022-11-22T21:41:54.767Z,5.98
2022-11-22T21:46:57.489Z,5.89
2022-11-22T21:52:00.220Z,6.09
2022-11-22T21:57:04.588Z,6.18
2022-11-22T22:02:07.379Z,6.20
2022-11-22T22:07:29.530Z,6.22
2022-11-22T22:12:35.231Z,6.12
2022-11-22T22:17:37.987Z,6.03
2022-11-22T22:22:40.722Z,6.04
2022-11-22T22:27:45.707Z,6.07
2022-11-22T22:32:48.436Z,6.12
2022-11-22T22:37:51.184Z,6.11
2022-11-22T22:42:55.238Z,6.22
2022-11-22T22:47:59.340Z,6.35
2022-11-22T22:53:02.137Z,6.47
2022-11-22T22:58:07.060Z,6.50
2022-11-22T23:03:12.181Z,6.45
2022-11-22T23:08:15.114Z,6.36
2022-11-22T23:13:19.312Z,6.32
2022-11-22T23:18:22.066Z,6.52
2022-11-22T23:23:24.856Z,6.40
2022-11-22T23:28:29.982Z,6.48
2022-11-22T23:33:32.871Z,6.51
2022-11-22T23:38:36.065Z,6.49
2022-11-22T23:43:40.183Z,6.58
2022-11-22T23:48:43.116Z,6.57
2022-11-22T23:53:45.894Z,6.55
2022-11-22T23:58:50.585Z,6.46
